N68329 KRYY-KRMG
Flight info
| Callsign | N68329 |
|---|---|
| Flight time | 0h 28m |
| Altitude | VFR045 |
| Route | |
| Aircraft | C152/L-DOV/C |
Departure
| Time | 2026-04-14 03:01 |
|---|---|
| Airport | Cobb County International Airport-McCollum Field (KRYY) |
Arrival
| Time | 2026-04-14 03:30 |
|---|---|
| Airport | Richard B Russell Airport (KRMG) |
| Time | Latitude | Longitude | Altitude | Speed | Heading |
|---|---|---|---|---|---|
| 2026-04-14 02:57 | 34.01449 | -84.59801 | 1015 ft | 0 kts | 167° |
| 2026-04-14 02:58 | 34.01442 | -84.59808 | 1017 ft | 4 kts | 234° |
| 2026-04-14 02:58 | 34.01386 | -84.59819 | 1017 ft | 16 kts | 113° |
| 2026-04-14 02:59 | 34.01385 | -84.59635 | 1010 ft | 24 kts | 89° |
| 2026-04-14 02:59 | 34.01389 | -84.59435 | 1006 ft | 23 kts | 89° |
| 2026-04-14 02:59 | 34.01393 | -84.59268 | 1006 ft | 11 kts | 89° |
| 2026-04-14 02:59 | 34.01392 | -84.59245 | 1005 ft | 0 kts | 95° |
| 2026-04-14 03:00 | 34.01392 | -84.59244 | 1005 ft | 0 kts | 95° |
| 2026-04-14 03:00 | 34.01372 | -84.59234 | 1005 ft | 7 kts | 182° |
| 2026-04-14 03:00 | 34.01327 | -84.59334 | 1006 ft | 31 kts | 269° |
| 2026-04-14 03:00 | 34.01315 | -84.59760 | 1054 ft | 62 kts | 268° |
| 2026-04-14 03:01 | 34.01325 | -84.60278 | 1253 ft | 60 kts | 269° |
| 2026-04-14 03:01 | 34.01335 | -84.60784 | 1455 ft | 62 kts | 269° |
| 2026-04-14 03:01 | 34.01352 | -84.61297 | 1685 ft | 60 kts | 269° |
| 2026-04-14 03:01 | 34.01524 | -84.61748 | 1839 ft | 70 kts | 307° |
| 2026-04-14 03:02 | 34.01958 | -84.62024 | 2032 ft | 76 kts | 329° |
| 2026-04-14 03:02 | 34.02454 | -84.62237 | 2248 ft | 74 kts | 332° |
| 2026-04-14 03:02 | 34.02963 | -84.62412 | 2433 ft | 75 kts | 333° |
| 2026-04-14 03:02 | 34.03452 | -84.62627 | 2599 ft | 77 kts | 331° |
| 2026-04-14 03:03 | 34.03934 | -84.62868 | 2799 ft | 75 kts | 327° |
| 2026-04-14 03:03 | 34.04416 | -84.63107 | 2996 ft | 76 kts | 333° |
| 2026-04-14 03:03 | 34.04923 | -84.63295 | 3189 ft | 76 kts | 335° |
| 2026-04-14 03:03 | 34.05428 | -84.63485 | 3367 ft | 76 kts | 329° |
| 2026-04-14 03:04 | 34.05914 | -84.63719 | 3554 ft | 74 kts | 326° |
| 2026-04-14 03:04 | 34.06277 | -84.64115 | 3711 ft | 68 kts | 288° |
| 2026-04-14 03:04 | 34.06486 | -84.64608 | 3883 ft | 67 kts | 284° |
| 2026-04-14 03:04 | 34.06668 | -84.65109 | 4053 ft | 65 kts | 282° |
| 2026-04-14 03:05 | 34.06840 | -84.65612 | 4213 ft | 64 kts | 280° |
| 2026-04-14 03:05 | 34.06979 | -84.66115 | 4359 ft | 64 kts | 277° |
| 2026-04-14 03:05 | 34.07107 | -84.66697 | 4405 ft | 78 kts | 273° |
| 2026-04-14 03:05 | 34.07207 | -84.67326 | 4524 ft | 82 kts | 271° |
| 2026-04-14 03:06 | 34.07298 | -84.68009 | 4591 ft | 80 kts | 270° |
| 2026-04-14 03:06 | 34.07386 | -84.68675 | 4603 ft | 81 kts | 269° |
| 2026-04-14 03:06 | 34.07449 | -84.69357 | 4618 ft | 81 kts | 267° |
| 2026-04-14 03:06 | 34.07498 | -84.70041 | 4630 ft | 83 kts | 266° |
| 2026-04-14 03:07 | 34.07530 | -84.70756 | 4590 ft | 88 kts | 264° |
| 2026-04-14 03:07 | 34.07551 | -84.71511 | 4515 ft | 90 kts | 265° |
| 2026-04-14 03:07 | 34.07566 | -84.72015 | 4463 ft | 91 kts | 264° |
| 2026-04-14 03:07 | 34.07587 | -84.72748 | 4465 ft | 87 kts | 264° |
| 2026-04-14 03:08 | 34.07624 | -84.73479 | 4461 ft | 86 kts | 268° |
| 2026-04-14 03:08 | 34.07702 | -84.74198 | 4435 ft | 89 kts | 275° |
| 2026-04-14 03:08 | 34.07888 | -84.74925 | 4396 ft | 91 kts | 281° |
| 2026-04-14 03:08 | 34.08092 | -84.75643 | 4395 ft | 91 kts | 280° |
| 2026-04-14 03:09 | 34.08279 | -84.76349 | 4320 ft | 87 kts | 278° |
| 2026-04-14 03:09 | 34.08467 | -84.77058 | 4182 ft | 90 kts | 281° |
| 2026-04-14 03:09 | 34.08694 | -84.77769 | 4078 ft | 90 kts | 285° |
| 2026-04-14 03:09 | 34.08985 | -84.78474 | 4107 ft | 95 kts | 291° |
| 2026-04-14 03:10 | 34.09343 | -84.79122 | 4256 ft | 92 kts | 297° |
| 2026-04-14 03:10 | 34.09734 | -84.79756 | 4345 ft | 95 kts | 298° |
| 2026-04-14 03:10 | 34.10122 | -84.80372 | 4450 ft | 90 kts | 299° |
| 2026-04-14 03:10 | 34.10490 | -84.80985 | 4441 ft | 90 kts | 295° |
| 2026-04-14 03:11 | 34.10819 | -84.81614 | 4446 ft | 88 kts | 288° |
| 2026-04-14 03:11 | 34.11035 | -84.82286 | 4436 ft | 85 kts | 278° |
| 2026-04-14 03:11 | 34.11119 | -84.82968 | 4431 ft | 82 kts | 265° |
| 2026-04-14 03:11 | 34.11144 | -84.83662 | 4436 ft | 82 kts | 264° |
| 2026-04-14 03:12 | 34.11162 | -84.84341 | 4441 ft | 81 kts | 263° |
| 2026-04-14 03:12 | 34.11149 | -84.85020 | 4438 ft | 80 kts | 260° |
| 2026-04-14 03:12 | 34.11112 | -84.85687 | 4436 ft | 80 kts | 259° |
| 2026-04-14 03:12 | 34.11086 | -84.86363 | 4412 ft | 82 kts | 259° |
| 2026-04-14 03:13 | 34.11066 | -84.87039 | 4424 ft | 80 kts | 260° |
| 2026-04-14 03:13 | 34.11053 | -84.87722 | 4413 ft | 81 kts | 262° |
| 2026-04-14 03:13 | 34.11068 | -84.88400 | 4420 ft | 81 kts | 266° |
| 2026-04-14 03:13 | 34.11134 | -84.89080 | 4441 ft | 81 kts | 268° |
| 2026-04-14 03:14 | 34.11182 | -84.89765 | 4438 ft | 83 kts | 265° |
| 2026-04-14 03:14 | 34.11252 | -84.90455 | 4446 ft | 83 kts | 270° |
| 2026-04-14 03:14 | 34.11442 | -84.91128 | 4447 ft | 87 kts | 284° |
| 2026-04-14 03:14 | 34.11717 | -84.91775 | 4456 ft | 90 kts | 295° |
| 2026-04-14 03:15 | 34.12112 | -84.92373 | 4459 ft | 91 kts | 301° |
| 2026-04-14 03:15 | 34.12532 | -84.92960 | 4473 ft | 91 kts | 301° |
| 2026-04-14 03:15 | 34.12932 | -84.93531 | 4492 ft | 90 kts | 301° |
| 2026-04-14 03:15 | 34.13338 | -84.94127 | 4499 ft | 90 kts | 298° |
| 2026-04-14 03:16 | 34.13721 | -84.94710 | 4513 ft | 90 kts | 300° |
| 2026-04-14 03:16 | 34.14117 | -84.95299 | 4528 ft | 90 kts | 299° |
| 2026-04-14 03:16 | 34.14514 | -84.95884 | 4536 ft | 90 kts | 300° |
| 2026-04-14 03:16 | 34.14783 | -84.96533 | 4502 ft | 85 kts | 267° |
| 2026-04-14 03:17 | 34.14719 | -84.97210 | 4529 ft | 78 kts | 255° |
| 2026-04-14 03:17 | 34.14538 | -84.98521 | 4533 ft | 79 kts | 254° |
| 2026-04-14 03:17 | 34.14444 | -84.99176 | 4534 ft | 79 kts | 253° |
| 2026-04-14 03:18 | 34.14341 | -84.99823 | 4542 ft | 78 kts | 252° |
| 2026-04-14 03:18 | 34.14234 | -85.00468 | 4538 ft | 79 kts | 253° |
| 2026-04-14 03:18 | 34.14144 | -85.01121 | 4552 ft | 79 kts | 253° |
| 2026-04-14 03:18 | 34.14072 | -85.01774 | 4558 ft | 81 kts | 269° |
| 2026-04-14 03:19 | 34.14250 | -85.02447 | 4540 ft | 87 kts | 282° |
| 2026-04-14 03:19 | 34.14477 | -85.03117 | 4559 ft | 85 kts | 283° |
| 2026-04-14 03:19 | 34.14695 | -85.03775 | 4571 ft | 86 kts | 282° |
| 2026-04-14 03:19 | 34.14927 | -85.04450 | 4594 ft | 86 kts | 284° |
| 2026-04-14 03:20 | 34.15195 | -85.05106 | 4637 ft | 87 kts | 291° |
| 2026-04-14 03:20 | 34.15566 | -85.05691 | 4671 ft | 91 kts | 303° |
| 2026-04-14 03:20 | 34.15808 | -85.06338 | 4615 ft | 85 kts | 259° |
| 2026-04-14 03:20 | 34.15725 | -85.06978 | 4720 ft | 74 kts | 253° |
| 2026-04-14 03:21 | 34.15638 | -85.07636 | 4685 ft | 81 kts | 254° |
| 2026-04-14 03:21 | 34.15554 | -85.08315 | 4677 ft | 83 kts | 255° |
| 2026-04-14 03:21 | 34.15481 | -85.09037 | 4591 ft | 89 kts | 257° |
| 2026-04-14 03:21 | 34.15610 | -85.09739 | 4551 ft | 95 kts | 297° |
| 2026-04-14 03:22 | 34.15967 | -85.10430 | 4462 ft | 95 kts | 285° |
| 2026-04-14 03:22 | 34.16160 | -85.11176 | 4410 ft | 93 kts | 276° |
| 2026-04-14 03:22 | 34.16392 | -85.11901 | 4364 ft | 94 kts | 288° |
| 2026-04-14 03:22 | 34.16877 | -85.12462 | 4333 ft | 105 kts | 329° |
| 2026-04-14 03:23 | 34.17623 | -85.12652 | 4247 ft | 113 kts | 343° |
| 2026-04-14 03:23 | 34.18406 | -85.12787 | 4196 ft | 112 kts | 348° |
| 2026-04-14 03:23 | 34.19146 | -85.12869 | 4306 ft | 98 kts | 348° |
| 2026-04-14 03:23 | 34.19817 | -85.12939 | 4313 ft | 105 kts | 347° |
| 2026-04-14 03:24 | 34.20574 | -85.13040 | 4290 ft | 111 kts | 347° |
| 2026-04-14 03:24 | 34.21346 | -85.13137 | 4293 ft | 111 kts | 347° |
| 2026-04-14 03:24 | 34.22125 | -85.13232 | 4262 ft | 114 kts | 348° |
| 2026-04-14 03:24 | 34.22874 | -85.13310 | 4238 ft | 104 kts | 349° |
| 2026-04-14 03:25 | 34.23608 | -85.13382 | 4005 ft | 110 kts | 347° |
| 2026-04-14 03:25 | 34.24364 | -85.13580 | 3798 ft | 111 kts | 332° |
| 2026-04-14 03:25 | 34.25020 | -85.14016 | 3626 ft | 104 kts | 314° |
| 2026-04-14 03:25 | 34.25559 | -85.14585 | 3420 ft | 103 kts | 305° |
| 2026-04-14 03:26 | 34.26059 | -85.15175 | 3169 ft | 99 kts | 307° |
| 2026-04-14 03:26 | 34.26619 | -85.15663 | 2892 ft | 100 kts | 320° |
| 2026-04-14 03:26 | 34.27244 | -85.16032 | 2617 ft | 100 kts | 329° |
| 2026-04-14 03:26 | 34.27893 | -85.16276 | 2393 ft | 95 kts | 339° |
| 2026-04-14 03:27 | 34.28555 | -85.16413 | 2198 ft | 98 kts | 346° |
| 2026-04-14 03:27 | 34.29239 | -85.16478 | 2023 ft | 100 kts | 356° |
| 2026-04-14 03:27 | 34.29938 | -85.16401 | 1794 ft | 100 kts | 2° |
| 2026-04-14 03:27 | 34.30607 | -85.16300 | 1631 ft | 93 kts | 4° |
| 2026-04-14 03:28 | 34.31233 | -85.16242 | 1449 ft | 86 kts | 1° |
| 2026-04-14 03:28 | 34.31782 | -85.16203 | 1298 ft | 71 kts | 4° |
| 2026-04-14 03:28 | 34.32269 | -85.16141 | 1123 ft | 69 kts | 4° |
| 2026-04-14 03:28 | 34.32731 | -85.16105 | 1022 ft | 65 kts | 3° |
| 2026-04-14 03:29 | 34.33187 | -85.16060 | 952 ft | 66 kts | 5° |
| 2026-04-14 03:29 | 34.33658 | -85.16011 | 846 ft | 70 kts | 5° |
| 2026-04-14 03:29 | 34.34135 | -85.15960 | 726 ft | 67 kts | 5° |
| 2026-04-14 03:29 | 34.34570 | -85.15916 | 647 ft | 53 kts | 6° |
| 2026-04-14 03:30 | 34.34865 | -85.15883 | 643 ft | 32 kts | 4° |
| 2026-04-14 03:30 | 34.35062 | -85.15862 | 643 ft | 26 kts | 6° |
| 2026-04-14 03:30 | 34.35151 | -85.15884 | 641 ft | 4 kts | 251° |
| 2026-04-14 03:30 | 34.35141 | -85.15918 | 641 ft | 6 kts | 246° |
| 2026-04-14 03:31 | 34.35125 | -85.15992 | 641 ft | 12 kts | 287° |
| 2026-04-14 03:31 | 34.35150 | -85.16095 | 641 ft | 7 kts | 210° |
| 2026-04-14 03:31 | 34.35143 | -85.16095 | 641 ft | 0 kts | 155° |